sensor_id;sensor_type;location;lat;lon;timestamp;P1;durP1;ratioP1;P2;durP2;ratioP2
70832;SDS011;71099;59.528;17.886;2023-07-20T00:00:25;3.08;;;0.90;;
70832;SDS011;71099;59.528;17.886;2023-07-20T00:02:51;1.50;;;0.70;;
70832;SDS011;71099;59.528;17.886;2023-07-20T00:05:17;2.20;;;0.65;;
70832;SDS011;71099;59.528;17.886;2023-07-20T00:07:49;5.68;;;1.20;;
70832;SDS011;71099;59.528;17.886;2023-07-20T00:10:17;2.08;;;0.93;;
70832;SDS011;71099;59.528;17.886;2023-07-20T00:12:42;6.13;;;1.42;;
70832;SDS011;71099;59.528;17.886;2023-07-20T00:15:12;3.40;;;0.80;;
70832;SDS011;71099;59.528;17.886;2023-07-20T00:17:38;1.35;;;0.93;;
70832;SDS011;71099;59.528;17.886;2023-07-20T00:20:05;4.28;;;0.70;;
70832;SDS011;71099;59.528;17.886;2023-07-20T00:22:31;2.60;;;0.80;;
70832;SDS011;71099;59.528;17.886;2023-07-20T00:24:56;6.85;;;1.23;;
70832;SDS011;71099;59.528;17.886;2023-07-20T00:27:22;4.00;;;1.00;;
70832;SDS011;71099;59.528;17.886;2023-07-20T00:29:47;2.80;;;0.75;;
70832;SDS011;71099;59.528;17.886;2023-07-20T00:32:13;1.58;;;0.93;;
70832;SDS011;71099;59.528;17.886;2023-07-20T00:34:38;7.30;;;1.75;;
70832;SDS011;71099;59.528;17.886;2023-07-20T00:37:03;1.23;;;0.80;;
70832;SDS011;71099;59.528;17.886;2023-07-20T00:39:29;5.45;;;0.77;;
70832;SDS011;71099;59.528;17.886;2023-07-20T00:41:54;1.90;;;0.80;;
70832;SDS011;71099;59.528;17.886;2023-07-20T00:44:20;4.80;;;0.80;;
70832;SDS011;71099;59.528;17.886;2023-07-20T00:46:46;2.15;;;0.77;;
70832;SDS011;71099;59.528;17.886;2023-07-20T00:49:11;2.80;;;0.90;;
70832;SDS011;71099;59.528;17.886;2023-07-20T00:51:37;2.20;;;1.15;;
70832;SDS011;71099;59.528;17.886;2023-07-20T00:54:03;4.95;;;1.02;;
70832;SDS011;71099;59.528;17.886;2023-07-20T00:56:29;3.05;;;0.90;;
70832;SDS011;71099;59.528;17.886;2023-07-20T00:58:55;7.88;;;1.00;;
70832;SDS011;71099;59.528;17.886;2023-07-20T01:01:21;9.45;;;2.25;;
70832;SDS011;71099;59.528;17.886;2023-07-20T01:03:47;2.75;;;1.08;;
70832;SDS011;71099;59.528;17.886;2023-07-20T01:06:30;2.00;;;0.90;;
70832;SDS011;71099;59.528;17.886;2023-07-20T01:09:34;3.42;;;1.27;;
70832;SDS011;71099;59.528;17.886;2023-07-20T01:14:43;3.70;;;1.08;;
70832;SDS011;71099;59.528;17.886;2023-07-20T01:17:08;3.80;;;0.75;;
70832;SDS011;71099;59.528;17.886;2023-07-20T01:19:34;3.00;;;0.75;;
70832;SDS011;71099;59.528;17.886;2023-07-20T01:33:14;5.40;;;1.65;;
70832;SDS011;71099;59.528;17.886;2023-07-20T01:35:41;3.00;;;0.90;;
70832;SDS011;71099;59.528;17.886;2023-07-20T01:38:11;2.38;;;1.05;;
70832;SDS011;71099;59.528;17.886;2023-07-20T01:40:38;7.22;;;1.38;;
70832;SDS011;71099;59.528;17.886;2023-07-20T01:43:05;6.82;;;1.60;;
70832;SDS011;71099;59.528;17.886;2023-07-20T01:45:30;2.72;;;1.13;;
70832;SDS011;71099;59.528;17.886;2023-07-20T01:47:56;7.07;;;1.45;;
70832;SDS011;71099;59.528;17.886;2023-07-20T01:50:21;8.70;;;1.80;;
70832;SDS011;71099;59.528;17.886;2023-07-20T01:52:47;3.10;;;1.02;;
70832;SDS011;71099;59.528;17.886;2023-07-20T01:55:13;4.97;;;1.20;;
70832;SDS011;71099;59.528;17.886;2023-07-20T01:57:38;6.15;;;1.45;;
70832;SDS011;71099;59.528;17.886;2023-07-20T02:00:04;4.68;;;0.95;;
70832;SDS011;71099;59.528;17.886;2023-07-20T02:02:30;3.30;;;1.33;;
70832;SDS011;71099;59.528;17.886;2023-07-20T02:04:55;8.57;;;1.40;;
70832;SDS011;71099;59.528;17.886;2023-07-20T02:07:21;6.82;;;1.52;;
70832;SDS011;71099;59.528;17.886;2023-07-20T02:09:46;4.53;;;1.13;;
70832;SDS011;71099;59.528;17.886;2023-07-20T02:12:12;1.90;;;1.17;;
70832;SDS011;71099;59.528;17.886;2023-07-20T02:14:37;6.68;;;1.02;;
70832;SDS011;71099;59.528;17.886;2023-07-20T02:17:03;4.55;;;1.23;;
70832;SDS011;71099;59.528;17.886;2023-07-20T02:19:29;8.80;;;1.90;;
70832;SDS011;71099;59.528;17.886;2023-07-20T02:21:55;4.82;;;1.45;;
70832;SDS011;71099;59.528;17.886;2023-07-20T02:24:20;6.32;;;0.95;;
70832;SDS011;71099;59.528;17.886;2023-07-20T02:26:46;5.95;;;1.45;;
70832;SDS011;71099;59.528;17.886;2023-07-20T02:29:11;4.97;;;1.20;;
70832;SDS011;71099;59.528;17.886;2023-07-20T02:31:37;4.25;;;1.17;;
70832;SDS011;71099;59.528;17.886;2023-07-20T02:34:04;4.85;;;1.95;;
70832;SDS011;71099;59.528;17.886;2023-07-20T02:36:33;7.60;;;1.70;;
70832;SDS011;71099;59.528;17.886;2023-07-20T02:38:59;8.20;;;1.52;;
70832;SDS011;71099;59.528;17.886;2023-07-20T02:41:26;3.53;;;1.02;;
70832;SDS011;71099;59.528;17.886;2023-07-20T02:43:52;2.40;;;1.42;;
70832;SDS011;71099;59.528;17.886;2023-07-20T02:46:17;3.90;;;1.23;;
70832;SDS011;71099;59.528;17.886;2023-07-20T02:48:43;4.32;;;1.60;;
70832;SDS011;71099;59.528;17.886;2023-07-20T02:51:08;6.35;;;1.50;;
70832;SDS011;71099;59.528;17.886;2023-07-20T02:53:34;4.63;;;1.98;;
70832;SDS011;71099;59.528;17.886;2023-07-20T02:56:00;3.35;;;0.90;;
70832;SDS011;71099;59.528;17.886;2023-07-20T02:58:25;5.88;;;1.63;;
70832;SDS011;71099;59.528;17.886;2023-07-20T03:00:50;5.72;;;2.00;;
70832;SDS011;71099;59.528;17.886;2023-07-20T03:03:16;6.63;;;1.52;;
70832;SDS011;71099;59.528;17.886;2023-07-20T03:05:41;4.68;;;1.48;;
70832;SDS011;71099;59.528;17.886;2023-07-20T03:08:07;7.25;;;2.05;;
70832;SDS011;71099;59.528;17.886;2023-07-20T03:10:33;4.10;;;1.33;;
70832;SDS011;71099;59.528;17.886;2023-07-20T03:13:05;6.60;;;1.75;;
70832;SDS011;71099;59.528;17.886;2023-07-20T03:15:31;5.13;;;1.52;;
70832;SDS011;71099;59.528;17.886;2023-07-20T03:17:57;8.13;;;1.45;;
70832;SDS011;71099;59.528;17.886;2023-07-20T03:20:23;5.60;;;1.65;;
70832;SDS011;71099;59.528;17.886;2023-07-20T03:22:49;4.68;;;1.10;;
70832;SDS011;71099;59.528;17.886;2023-07-20T03:25:14;7.30;;;1.95;;
70832;SDS011;71099;59.528;17.886;2023-07-20T03:27:40;4.65;;;1.15;;
70832;SDS011;71099;59.528;17.886;2023-07-20T03:30:05;5.88;;;1.52;;
70832;SDS011;71099;59.528;17.886;2023-07-20T03:32:32;8.55;;;1.40;;
70832;SDS011;71099;59.528;17.886;2023-07-20T03:34:58;10.85;;;2.03;;
70832;SDS011;71099;59.528;17.886;2023-07-20T03:37:23;4.45;;;1.25;;
70832;SDS011;71099;59.528;17.886;2023-07-20T03:39:49;7.35;;;1.65;;
70832;SDS011;71099;59.528;17.886;2023-07-20T03:42:14;6.72;;;1.30;;
70832;SDS011;71099;59.528;17.886;2023-07-20T03:44:39;3.33;;;1.52;;
70832;SDS011;71099;59.528;17.886;2023-07-20T03:47:05;7.47;;;1.73;;
70832;SDS011;71099;59.528;17.886;2023-07-20T03:49:31;4.00;;;1.60;;
70832;SDS011;71099;59.528;17.886;2023-07-20T03:51:57;6.75;;;1.60;;
70832;SDS011;71099;59.528;17.886;2023-07-20T03:54:22;5.80;;;1.70;;
70832;SDS011;71099;59.528;17.886;2023-07-20T03:56:47;6.00;;;1.35;;
70832;SDS011;71099;59.528;17.886;2023-07-20T03:59:13;6.28;;;1.45;;
70832;SDS011;71099;59.528;17.886;2023-07-20T04:01:38;9.45;;;1.70;;
70832;SDS011;71099;59.528;17.886;2023-07-20T04:04:06;6.38;;;1.83;;
70832;SDS011;71099;59.528;17.886;2023-07-20T04:06:33;6.13;;;1.83;;
70832;SDS011;71099;59.528;17.886;2023-07-20T04:08:58;7.45;;;2.35;;
70832;SDS011;71099;59.528;17.886;2023-07-20T04:11:24;8.20;;;1.77;;
70832;SDS011;71099;59.528;17.886;2023-07-20T04:13:49;7.35;;;2.10;;
70832;SDS011;71099;59.528;17.886;2023-07-20T04:16:15;4.68;;;1.33;;
70832;SDS011;71099;59.528;17.886;2023-07-20T04:18:40;3.47;;;1.70;;
70832;SDS011;71099;59.528;17.886;2023-07-20T04:21:07;6.55;;;1.45;;
70832;SDS011;71099;59.528;17.886;2023-07-20T04:23:33;5.50;;;1.85;;
70832;SDS011;71099;59.528;17.886;2023-07-20T04:25:58;7.07;;;1.88;;
70832;SDS011;71099;59.528;17.886;2023-07-20T04:28:24;6.40;;;1.67;;
70832;SDS011;71099;59.528;17.886;2023-07-20T04:30:49;5.85;;;2.95;;
70832;SDS011;71099;59.528;17.886;2023-07-20T04:33:18;5.70;;;1.77;;
70832;SDS011;71099;59.528;17.886;2023-07-20T04:35:45;5.80;;;1.65;;
70832;SDS011;71099;59.528;17.886;2023-07-20T04:38:10;5.72;;;1.80;;
70832;SDS011;71099;59.528;17.886;2023-07-20T04:40:36;7.75;;;2.20;;
70832;SDS011;71099;59.528;17.886;2023-07-20T04:43:01;7.97;;;1.73;;
70832;SDS011;71099;59.528;17.886;2023-07-20T04:45:27;7.88;;;2.47;;
70832;SDS011;71099;59.528;17.886;2023-07-20T04:47:52;6.32;;;1.90;;
70832;SDS011;71099;59.528;17.886;2023-07-20T04:50:17;5.43;;;1.77;;
70832;SDS011;71099;59.528;17.886;2023-07-20T04:52:43;8.95;;;2.47;;
70832;SDS011;71099;59.528;17.886;2023-07-20T04:55:11;7.53;;;2.22;;
70832;SDS011;71099;59.528;17.886;2023-07-20T04:57:36;7.50;;;1.52;;
70832;SDS011;71099;59.528;17.886;2023-07-20T05:00:02;9.63;;;2.63;;
70832;SDS011;71099;59.528;17.886;2023-07-20T05:02:28;4.07;;;1.58;;
70832;SDS011;71099;59.528;17.886;2023-07-20T05:04:54;5.13;;;1.65;;
70832;SDS011;71099;59.528;17.886;2023-07-20T05:07:19;7.40;;;2.58;;
70832;SDS011;71099;59.528;17.886;2023-07-20T05:09:44;6.32;;;1.58;;
70832;SDS011;71099;59.528;17.886;2023-07-20T05:12:10;9.30;;;2.50;;
70832;SDS011;71099;59.528;17.886;2023-07-20T05:14:37;7.25;;;2.13;;
70832;SDS011;71099;59.528;17.886;2023-07-20T05:17:03;5.70;;;1.63;;
70832;SDS011;71099;59.528;17.886;2023-07-20T05:19:28;6.10;;;1.90;;
70832;SDS011;71099;59.528;17.886;2023-07-20T05:21:54;9.07;;;2.28;;
70832;SDS011;71099;59.528;17.886;2023-07-20T05:24:19;7.07;;;2.17;;
70832;SDS011;71099;59.528;17.886;2023-07-20T05:26:45;8.45;;;3.05;;
70832;SDS011;71099;59.528;17.886;2023-07-20T05:29:10;11.73;;;2.97;;
70832;SDS011;71099;59.528;17.886;2023-07-20T05:31:35;7.00;;;1.75;;
70832;SDS011;71099;59.528;17.886;2023-07-20T05:34:01;10.13;;;2.25;;
70832;SDS011;71099;59.528;17.886;2023-07-20T05:36:26;9.10;;;1.88;;
70832;SDS011;71099;59.528;17.886;2023-07-20T05:38:52;8.50;;;1.95;;
70832;SDS011;71099;59.528;17.886;2023-07-20T05:41:17;7.25;;;1.70;;
70832;SDS011;71099;59.528;17.886;2023-07-20T05:43:42;6.10;;;2.13;;
70832;SDS011;71099;59.528;17.886;2023-07-20T05:46:08;5.97;;;1.95;;
70832;SDS011;71099;59.528;17.886;2023-07-20T05:48:34;8.38;;;2.78;;
70832;SDS011;71099;59.528;17.886;2023-07-20T05:51:00;12.25;;;2.55;;
70832;SDS011;71099;59.528;17.886;2023-07-20T05:53:25;9.15;;;3.33;;
70832;SDS011;71099;59.528;17.886;2023-07-20T05:55:51;5.75;;;2.42;;
70832;SDS011;71099;59.528;17.886;2023-07-20T05:58:20;5.80;;;2.30;;
70832;SDS011;71099;59.528;17.886;2023-07-20T06:00:49;11.75;;;3.00;;
70832;SDS011;71099;59.528;17.886;2023-07-20T06:03:16;6.57;;;2.17;;
70832;SDS011;71099;59.528;17.886;2023-07-20T06:05:41;3.08;;;2.00;;
70832;SDS011;71099;59.528;17.886;2023-07-20T06:08:07;3.58;;;2.05;;
70832;SDS011;71099;59.528;17.886;2023-07-20T06:10:33;9.52;;;2.50;;
70832;SDS011;71099;59.528;17.886;2023-07-20T06:12:58;6.65;;;2.70;;
70832;SDS011;71099;59.528;17.886;2023-07-20T06:15:27;8.90;;;2.13;;
70832;SDS011;71099;59.528;17.886;2023-07-20T06:17:56;6.28;;;2.47;;
70832;SDS011;71099;59.528;17.886;2023-07-20T06:20:23;10.00;;;2.45;;
70832;SDS011;71099;59.528;17.886;2023-07-20T06:22:49;5.97;;;1.80;;
70832;SDS011;71099;59.528;17.886;2023-07-20T06:25:15;7.45;;;2.28;;
70832;SDS011;71099;59.528;17.886;2023-07-20T06:27:41;5.82;;;2.78;;
70832;SDS011;71099;59.528;17.886;2023-07-20T06:30:07;5.43;;;1.98;;
70832;SDS011;71099;59.528;17.886;2023-07-20T06:32:33;6.70;;;2.08;;
70832;SDS011;71099;59.528;17.886;2023-07-20T06:34:58;6.72;;;2.80;;
70832;SDS011;71099;59.528;17.886;2023-07-20T06:37:23;11.68;;;2.40;;
70832;SDS011;71099;59.528;17.886;2023-07-20T06:39:49;6.70;;;2.45;;
70832;SDS011;71099;59.528;17.886;2023-07-20T06:42:14;4.50;;;2.05;;
70832;SDS011;71099;59.528;17.886;2023-07-20T06:44:40;5.00;;;2.20;;
70832;SDS011;71099;59.528;17.886;2023-07-20T06:47:05;12.40;;;2.55;;
70832;SDS011;71099;59.528;17.886;2023-07-20T06:49:31;5.35;;;2.20;;
70832;SDS011;71099;59.528;17.886;2023-07-20T06:51:56;5.47;;;2.15;;
70832;SDS011;71099;59.528;17.886;2023-07-20T06:54:22;10.88;;;2.33;;
70832;SDS011;71099;59.528;17.886;2023-07-20T06:56:47;9.45;;;1.95;;
70832;SDS011;71099;59.528;17.886;2023-07-20T06:59:13;8.35;;;2.30;;
70832;SDS011;71099;59.528;17.886;2023-07-20T07:01:38;5.28;;;1.85;;
70832;SDS011;71099;59.528;17.886;2023-07-20T07:04:04;9.50;;;2.58;;
70832;SDS011;71099;59.528;17.886;2023-07-20T07:06:30;6.47;;;2.40;;
70832;SDS011;71099;59.528;17.886;2023-07-20T07:08:56;6.35;;;2.25;;
70832;SDS011;71099;59.528;17.886;2023-07-20T07:11:21;8.30;;;2.28;;
70832;SDS011;71099;59.528;17.886;2023-07-20T07:13:48;4.63;;;1.77;;
70832;SDS011;71099;59.528;17.886;2023-07-20T07:16:16;10.05;;;2.17;;
70832;SDS011;71099;59.528;17.886;2023-07-20T07:18:44;5.95;;;2.30;;
70832;SDS011;71099;59.528;17.886;2023-07-20T07:21:13;12.85;;;4.00;;
70832;SDS011;71099;59.528;17.886;2023-07-20T07:23:38;6.35;;;2.03;;
70832;SDS011;71099;59.528;17.886;2023-07-20T07:26:04;8.95;;;2.40;;
70832;SDS011;71099;59.528;17.886;2023-07-20T07:28:30;2.63;;;1.70;;
70832;SDS011;71099;59.528;17.886;2023-07-20T07:30:57;4.18;;;1.85;;
70832;SDS011;71099;59.528;17.886;2023-07-20T07:33:22;4.57;;;1.85;;
70832;SDS011;71099;59.528;17.886;2023-07-20T07:35:49;9.23;;;2.72;;
70832;SDS011;71099;59.528;17.886;2023-07-20T07:38:15;6.57;;;2.20;;
70832;SDS011;71099;59.528;17.886;2023-07-20T07:40:40;5.65;;;1.90;;
70832;SDS011;71099;59.528;17.886;2023-07-20T07:43:07;6.45;;;2.53;;
70832;SDS011;71099;59.528;17.886;2023-07-20T07:45:34;5.68;;;1.63;;
70832;SDS011;71099;59.528;17.886;2023-07-20T07:48:02;5.38;;;1.88;;
70832;SDS011;71099;59.528;17.886;2023-07-20T07:50:29;3.72;;;1.50;;
70832;SDS011;71099;59.528;17.886;2023-07-20T07:52:54;9.00;;;1.95;;
70832;SDS011;71099;59.528;17.886;2023-07-20T07:55:20;8.15;;;1.60;;
70832;SDS011;71099;59.528;17.886;2023-07-20T07:57:45;6.78;;;2.60;;
70832;SDS011;71099;59.528;17.886;2023-07-20T08:00:12;5.93;;;1.85;;
70832;SDS011;71099;59.528;17.886;2023-07-20T08:02:40;6.72;;;1.88;;
70832;SDS011;71099;59.528;17.886;2023-07-20T08:05:07;4.43;;;1.92;;
70832;SDS011;71099;59.528;17.886;2023-07-20T08:07:32;4.00;;;1.90;;
70832;SDS011;71099;59.528;17.886;2023-07-20T08:09:58;4.57;;;2.17;;
70832;SDS011;71099;59.528;17.886;2023-07-20T08:12:24;9.23;;;1.83;;
70832;SDS011;71099;59.528;17.886;2023-07-20T08:14:49;4.38;;;1.98;;
70832;SDS011;71099;59.528;17.886;2023-07-20T08:17:16;5.75;;;2.38;;
70832;SDS011;71099;59.528;17.886;2023-07-20T08:19:42;6.97;;;2.88;;
70832;SDS011;71099;59.528;17.886;2023-07-20T08:22:09;4.80;;;2.35;;
70832;SDS011;71099;59.528;17.886;2023-07-20T08:24:34;6.75;;;2.00;;
70832;SDS011;71099;59.528;17.886;2023-07-20T08:27:00;5.60;;;2.15;;
70832;SDS011;71099;59.528;17.886;2023-07-20T08:29:25;5.15;;;1.88;;
70832;SDS011;71099;59.528;17.886;2023-07-20T08:31:51;4.78;;;1.85;;
70832;SDS011;71099;59.528;17.886;2023-07-20T08:34:16;5.55;;;1.75;;
70832;SDS011;71099;59.528;17.886;2023-07-20T08:36:41;3.90;;;1.70;;
70832;SDS011;71099;59.528;17.886;2023-07-20T08:39:07;2.25;;;1.23;;
70832;SDS011;71099;59.528;17.886;2023-07-20T08:41:33;5.57;;;1.88;;
70832;SDS011;71099;59.528;17.886;2023-07-20T08:44:00;5.60;;;1.63;;
70832;SDS011;71099;59.528;17.886;2023-07-20T08:46:26;5.85;;;2.38;;
70832;SDS011;71099;59.528;17.886;2023-07-20T08:48:53;4.50;;;1.60;;
70832;SDS011;71099;59.528;17.886;2023-07-20T08:51:20;5.53;;;1.77;;
70832;SDS011;71099;59.528;17.886;2023-07-20T08:53:46;5.55;;;2.38;;
70832;SDS011;71099;59.528;17.886;2023-07-20T08:56:14;2.78;;;1.27;;
70832;SDS011;71099;59.528;17.886;2023-07-20T08:58:43;9.20;;;1.70;;
70832;SDS011;71099;59.528;17.886;2023-07-20T09:01:09;4.72;;;1.55;;
70832;SDS011;71099;59.528;17.886;2023-07-20T09:03:35;6.90;;;2.25;;
70832;SDS011;71099;59.528;17.886;2023-07-20T09:06:04;3.55;;;1.48;;
70832;SDS011;71099;59.528;17.886;2023-07-20T09:08:30;3.35;;;1.75;;
70832;SDS011;71099;59.528;17.886;2023-07-20T09:10:56;3.65;;;1.52;;
70832;SDS011;71099;59.528;17.886;2023-07-20T09:13:22;2.42;;;1.33;;
70832;SDS011;71099;59.528;17.886;2023-07-20T09:15:53;4.65;;;1.17;;
70832;SDS011;71099;59.528;17.886;2023-07-20T09:18:26;3.33;;;1.60;;
70832;SDS011;71099;59.528;17.886;2023-07-20T09:20:53;2.47;;;1.38;;
70832;SDS011;71099;59.528;17.886;2023-07-20T09:23:34;2.85;;;1.20;;
70832;SDS011;71099;59.528;17.886;2023-07-20T09:26:08;4.70;;;1.15;;
70832;SDS011;71099;59.528;17.886;2023-07-20T09:28:56;3.33;;;1.40;;
70832;SDS011;71099;59.528;17.886;2023-07-20T09:31:21;2.53;;;1.25;;
70832;SDS011;71099;59.528;17.886;2023-07-20T09:33:48;3.83;;;1.50;;
70832;SDS011;71099;59.528;17.886;2023-07-20T09:36:14;5.07;;;1.48;;
70832;SDS011;71099;59.528;17.886;2023-07-20T09:38:40;4.45;;;1.63;;
70832;SDS011;71099;59.528;17.886;2023-07-20T09:41:07;4.28;;;1.60;;
70832;SDS011;71099;59.528;17.886;2023-07-20T09:43:33;2.70;;;1.30;;
70832;SDS011;71099;59.528;17.886;2023-07-20T09:45:59;5.07;;;1.55;;
70832;SDS011;71099;59.528;17.886;2023-07-20T09:48:25;5.88;;;1.55;;
70832;SDS011;71099;59.528;17.886;2023-07-20T09:50:52;3.63;;;1.20;;
70832;SDS011;71099;59.528;17.886;2023-07-20T09:53:18;3.78;;;1.40;;
70832;SDS011;71099;59.528;17.886;2023-07-20T09:55:45;4.07;;;1.40;;
70832;SDS011;71099;59.528;17.886;2023-07-20T09:58:12;4.65;;;1.75;;
70832;SDS011;71099;59.528;17.886;2023-07-20T10:00:39;4.60;;;2.05;;
70832;SDS011;71099;59.528;17.886;2023-07-20T10:03:06;2.97;;;1.55;;
70832;SDS011;71099;59.528;17.886;2023-07-20T10:05:36;4.45;;;1.48;;
70832;SDS011;71099;59.528;17.886;2023-07-20T10:08:05;5.68;;;1.17;;
70832;SDS011;71099;59.528;17.886;2023-07-20T10:10:36;2.58;;;1.13;;
70832;SDS011;71099;59.528;17.886;2023-07-20T10:13:03;2.65;;;1.48;;
70832;SDS011;71099;59.528;17.886;2023-07-20T10:15:37;1.48;;;0.95;;
70832;SDS011;71099;59.528;17.886;2023-07-20T10:18:28;5.47;;;1.40;;
70832;SDS011;71099;59.528;17.886;2023-07-20T10:20:56;2.55;;;1.10;;
70832;SDS011;71099;59.528;17.886;2023-07-20T10:23:24;4.57;;;1.38;;
70832;SDS011;71099;59.528;17.886;2023-07-20T10:25:53;4.45;;;1.13;;
70832;SDS011;71099;59.528;17.886;2023-07-20T10:28:20;1.13;;;1.02;;
70832;SDS011;71099;59.528;17.886;2023-07-20T10:30:48;3.92;;;1.30;;
70832;SDS011;71099;59.528;17.886;2023-07-20T10:33:14;2.58;;;1.70;;
70832;SDS011;71099;59.528;17.886;2023-07-20T10:35:52;2.78;;;1.02;;
70832;SDS011;71099;59.528;17.886;2023-07-20T10:38:18;2.45;;;0.80;;
70832;SDS011;71099;59.528;17.886;2023-07-20T10:40:53;4.25;;;0.90;;
70832;SDS011;71099;59.528;17.886;2023-07-20T10:48:15;4.88;;;1.30;;
70832;SDS011;71099;59.528;17.886;2023-07-20T10:50:45;3.08;;;1.48;;
70832;SDS011;71099;59.528;17.886;2023-07-20T10:53:31;3.65;;;1.20;;
70832;SDS011;71099;59.528;17.886;2023-07-20T10:56:06;3.90;;;1.10;;
70832;SDS011;71099;59.528;17.886;2023-07-20T10:58:32;3.30;;;1.08;;
70832;SDS011;71099;59.528;17.886;2023-07-20T11:01:02;1.77;;;0.90;;
70832;SDS011;71099;59.528;17.886;2023-07-20T11:03:32;1.63;;;1.02;;
70832;SDS011;71099;59.528;17.886;2023-07-20T11:05:59;1.92;;;1.00;;
70832;SDS011;71099;59.528;17.886;2023-07-20T11:08:44;2.35;;;1.00;;
70832;SDS011;71099;59.528;17.886;2023-07-20T11:11:33;1.33;;;0.60;;
70832;SDS011;71099;59.528;17.886;2023-07-20T11:14:22;2.67;;;0.82;;
70832;SDS011;71099;59.528;17.886;2023-07-20T11:16:46;1.13;;;0.60;;
70832;SDS011;71099;59.528;17.886;2023-07-20T11:19:17;2.03;;;1.00;;
70832;SDS011;71099;59.528;17.886;2023-07-20T11:21:44;0.73;;;0.47;;
70832;SDS011;71099;59.528;17.886;2023-07-20T11:24:11;3.92;;;0.75;;
70832;SDS011;71099;59.528;17.886;2023-07-20T11:29:10;3.50;;;0.80;;
70832;SDS011;71099;59.528;17.886;2023-07-20T11:31:40;2.55;;;0.73;;
70832;SDS011;71099;59.528;17.886;2023-07-20T11:34:10;1.42;;;0.88;;
70832;SDS011;71099;59.528;17.886;2023-07-20T11:36:41;1.30;;;0.90;;
70832;SDS011;71099;59.528;17.886;2023-07-20T11:39:11;1.17;;;1.05;;
70832;SDS011;71099;59.528;17.886;2023-07-20T11:41:38;0.70;;;0.65;;
70832;SDS011;71099;59.528;17.886;2023-07-20T11:44:05;1.80;;;0.47;;
70832;SDS011;71099;59.528;17.886;2023-07-20T11:46:32;1.55;;;0.73;;
70832;SDS011;71099;59.528;17.886;2023-07-20T11:48:59;3.45;;;1.05;;
70832;SDS011;71099;59.528;17.886;2023-07-20T11:51:27;0.73;;;0.70;;
70832;SDS011;71099;59.528;17.886;2023-07-20T11:53:54;1.00;;;0.65;;
70832;SDS011;71099;59.528;17.886;2023-07-20T11:56:20;1.08;;;0.70;;
70832;SDS011;71099;59.528;17.886;2023-07-20T11:58:46;2.05;;;0.70;;
70832;SDS011;71099;59.528;17.886;2023-07-20T12:01:14;2.97;;;0.98;;
70832;SDS011;71099;59.528;17.886;2023-07-20T12:03:41;1.42;;;0.68;;
70832;SDS011;71099;59.528;17.886;2023-07-20T12:06:10;1.10;;;0.60;;
70832;SDS011;71099;59.528;17.886;2023-07-20T12:08:39;2.38;;;0.80;;
70832;SDS011;71099;59.528;17.886;2023-07-20T12:11:06;2.95;;;0.80;;
70832;SDS011;71099;59.528;17.886;2023-07-20T12:13:42;2.30;;;1.00;;
70832;SDS011;71099;59.528;17.886;2023-07-20T12:16:10;2.30;;;0.80;;
70832;SDS011;71099;59.528;17.886;2023-07-20T12:18:39;3.35;;;1.05;;
70832;SDS011;71099;59.528;17.886;2023-07-20T12:21:05;3.10;;;0.80;;
70832;SDS011;71099;59.528;17.886;2023-07-20T12:23:39;1.02;;;0.73;;
70832;SDS011;71099;59.528;17.886;2023-07-20T12:26:11;6.43;;;1.27;;
70832;SDS011;71099;59.528;17.886;2023-07-20T12:28:40;2.22;;;0.70;;
70832;SDS011;71099;59.528;17.886;2023-07-20T12:31:06;4.07;;;0.90;;
70832;SDS011;71099;59.528;17.886;2023-07-20T12:33:33;4.22;;;1.00;;
70832;SDS011;71099;59.528;17.886;2023-07-20T12:35:59;1.65;;;0.75;;
70832;SDS011;71099;59.528;17.886;2023-07-20T12:38:25;0.90;;;0.60;;
70832;SDS011;71099;59.528;17.886;2023-07-20T12:40:52;1.77;;;1.10;;
70832;SDS011;71099;59.528;17.886;2023-07-20T12:43:20;3.90;;;1.92;;
70832;SDS011;71099;59.528;17.886;2023-07-20T12:45:46;1.10;;;0.60;;
70832;SDS011;71099;59.528;17.886;2023-07-20T12:48:11;2.35;;;0.90;;
70832;SDS011;71099;59.528;17.886;2023-07-20T12:50:36;2.63;;;1.50;;
70832;SDS011;71099;59.528;17.886;2023-07-20T12:53:02;2.28;;;1.27;;
70832;SDS011;71099;59.528;17.886;2023-07-20T12:55:28;3.13;;;0.88;;
70832;SDS011;71099;59.528;17.886;2023-07-20T12:57:54;5.10;;;1.20;;
70832;SDS011;71099;59.528;17.886;2023-07-20T13:00:20;2.55;;;1.10;;
70832;SDS011;71099;59.528;17.886;2023-07-20T13:02:47;2.38;;;1.02;;
70832;SDS011;71099;59.528;17.886;2023-07-20T13:05:12;2.10;;;0.73;;
70832;SDS011;71099;59.528;17.886;2023-07-20T13:07:38;1.50;;;0.57;;
70832;SDS011;71099;59.528;17.886;2023-07-20T13:10:04;1.65;;;0.98;;
70832;SDS011;71099;59.528;17.886;2023-07-20T13:12:32;1.25;;;0.73;;
70832;SDS011;71099;59.528;17.886;2023-07-20T13:15:00;1.77;;;0.98;;
70832;SDS011;71099;59.528;17.886;2023-07-20T13:17:36;3.15;;;0.80;;
70832;SDS011;71099;59.528;17.886;2023-07-20T13:20:06;1.55;;;0.68;;
70832;SDS011;71099;59.528;17.886;2023-07-20T13:22:35;2.70;;;0.80;;
70832;SDS011;71099;59.528;17.886;2023-07-20T13:25:00;2.90;;;1.15;;
70832;SDS011;71099;59.528;17.886;2023-07-20T13:27:26;1.10;;;0.52;;
70832;SDS011;71099;59.528;17.886;2023-07-20T13:29:51;2.65;;;1.10;;
70832;SDS011;71099;59.528;17.886;2023-07-20T13:32:17;2.38;;;0.93;;
70832;SDS011;71099;59.528;17.886;2023-07-20T13:34:46;4.22;;;1.10;;
70832;SDS011;71099;59.528;17.886;2023-07-20T13:37:11;1.92;;;0.88;;
70832;SDS011;71099;59.528;17.886;2023-07-20T13:39:37;4.35;;;1.52;;
70832;SDS011;71099;59.528;17.886;2023-07-20T13:42:04;5.57;;;1.20;;
70832;SDS011;71099;59.528;17.886;2023-07-20T13:44:33;2.60;;;0.93;;
70832;SDS011;71099;59.528;17.886;2023-07-20T13:46:59;2.40;;;0.88;;
70832;SDS011;71099;59.528;17.886;2023-07-20T13:49:25;3.10;;;0.80;;
70832;SDS011;71099;59.528;17.886;2023-07-20T13:51:50;2.38;;;0.75;;
70832;SDS011;71099;59.528;17.886;2023-07-20T13:54:16;1.48;;;0.88;;
70832;SDS011;71099;59.528;17.886;2023-07-20T13:56:41;1.52;;;0.80;;
70832;SDS011;71099;59.528;17.886;2023-07-20T13:59:07;0.68;;;0.60;;
70832;SDS011;71099;59.528;17.886;2023-07-20T14:01:32;2.58;;;0.90;;
70832;SDS011;71099;59.528;17.886;2023-07-20T14:04:00;4.05;;;1.25;;
70832;SDS011;71099;59.528;17.886;2023-07-20T14:06:29;2.08;;;1.40;;
70832;SDS011;71099;59.528;17.886;2023-07-20T14:08:55;2.05;;;1.10;;
70832;SDS011;71099;59.528;17.886;2023-07-20T14:11:20;1.08;;;0.73;;
70832;SDS011;71099;59.528;17.886;2023-07-20T14:13:46;4.13;;;0.82;;
70832;SDS011;71099;59.528;17.886;2023-07-20T14:16:11;3.05;;;0.63;;
70832;SDS011;71099;59.528;17.886;2023-07-20T14:18:37;1.75;;;0.63;;
70832;SDS011;71099;59.528;17.886;2023-07-20T14:21:02;1.08;;;0.90;;
70832;SDS011;71099;59.528;17.886;2023-07-20T14:23:30;5.13;;;1.02;;
70832;SDS011;71099;59.528;17.886;2023-07-20T14:25:55;2.08;;;0.90;;
70832;SDS011;71099;59.528;17.886;2023-07-20T14:28:21;3.30;;;0.88;;
70832;SDS011;71099;59.528;17.886;2023-07-20T14:30:46;1.45;;;0.80;;
70832;SDS011;71099;59.528;17.886;2023-07-20T14:33:12;1.63;;;0.50;;
70832;SDS011;71099;59.528;17.886;2023-07-20T14:35:37;3.08;;;0.85;;
70832;SDS011;71099;59.528;17.886;2023-07-20T14:38:03;1.67;;;1.17;;
70832;SDS011;71099;59.528;17.886;2023-07-20T14:40:28;1.17;;;1.05;;
70832;SDS011;71099;59.528;17.886;2023-07-20T14:42:55;1.80;;;0.73;;
70832;SDS011;71099;59.528;17.886;2023-07-20T14:45:21;0.95;;;0.90;;
70832;SDS011;71099;59.528;17.886;2023-07-20T14:47:46;0.77;;;0.55;;
70832;SDS011;71099;59.528;17.886;2023-07-20T14:50:18;1.40;;;0.68;;
70832;SDS011;71099;59.528;17.886;2023-07-20T14:52:44;3.95;;;0.93;;